Time;durP1;ratioP1;P1;durP2;ratioP2;P2;SDS_P1;SDS_P2;PMS_P1;PMS_P2;Temp;Humidity;BMP_temperature;BMP_pressure;BME280_temperature;BME280_humidity;BME280_pressure;Samples;Min_cycle;Max_cycle;Signal;HPM_P1;HPM_P2
2022/11/02 00:52:53;;;;;;;;;;;;;;;;;;;;;
2022/11/02 00:57:46;;;;;;;5.50;1.80;;;9.00;99.90;;;;;;5825435;24;20130;-84
2022/11/02 01:12:42;;;;;;;;;;;;;;;;;;;;;
2022/11/02 01:22:40;;;;;;;4.43;2.38;;;8.50;99.90;;;;;;5768294;24;20020;-84
2022/11/02 01:32:54;;;;;;;;;;;;;;;;;;;;;
2022/11/02 02:07:44;;;;;;;;;;;;;;;;;;;;;
2022/11/02 02:41:45;;;;;;;10.07;3.58;;;9.50;99.90;;;;;;6004828;23;20050;-84
2022/11/02 03:14:35;;;;;;;;;;;;;;;;;;;;;
2022/11/02 04:30:18;;;;;;;5.55;3.08;;;10.60;99.90;;;;;;6274927;22;20027;-88
2022/11/02 04:34:00;;;;;;;;;;;;;;;;;;;;;
2022/11/02 04:41:59;;;;;;;;;;;;;;;;;;;;;
2022/11/02 04:45:51;;;;;;;4.15;2.13;;;10.40;99.90;;;;;;6120979;23;20067;-89
2022/11/02 04:49:29;;;;;;;;;;;;;;;;;;;;;
2022/11/02 04:53:49;;;;;;;6.72;1.88;;;10.50;99.90;;;;;;6129640;23;20105;-89
2022/11/02 05:20:07;;;;;;;2.78;2.38;;;10.20;99.90;;;;;;5877155;24;20016;-89
2022/11/02 05:23:41;;;;;;;2.67;2.47;;;10.20;99.90;;;;;;5946107;23;20090;-89
2022/11/02 05:33:29;;;;;;;2.88;2.08;;;10.10;99.90;;;;;;6050326;23;20033;-89
2022/11/02 05:37:36;;;;;;;3.72;2.63;;;10.00;99.90;;;;;;5986553;23;20474;-89
2022/11/02 05:41:29;;;;;;;3.88;2.10;;;9.90;99.90;;;;;;5992681;23;20354;-88
2022/11/02 05:44:58;;;;;;;3.53;3.22;;;10.00;99.90;;;;;;6099887;23;20021;-88
2022/11/02 05:48:45;;;;;;;3.50;3.15;;;9.90;99.90;;;;;;6112222;23;20025;-88
2022/11/02 06:02:28;;;;;;;3.75;2.08;;;10.20;99.90;;;;;;6177495;23;20017;-88
2022/11/02 06:06:37;;;;;;;4.82;1.80;;;10.30;99.90;;;;;;6219174;22;20031;-89
2022/11/02 06:10:29;;;;;;;3.17;2.45;;;10.50;99.90;;;;;;6190243;22;20066;-89
2022/11/02 06:19:03;;;;;;;3.05;1.80;;;10.30;99.90;;;;;;6142160;23;20028;-89
2022/11/02 06:23:19;;;;;;;;;;;;;;;;;;;;;
2022/11/02 06:36:19;;;;;;;2.25;1.95;;;10.30;99.90;;;;;;6207201;22;20027;-89
2022/11/02 06:44:20;;;;;;;4.70;2.35;;;10.10;99.90;;;;;;6150939;23;20022;-89
2022/11/02 06:49:04;;;;;;;;;;;;;;;;;;;;;
2022/11/02 08:34:26;;;;;;;5.10;2.35;;;12.70;99.90;;;;;;6254994;22;20028;31
2022/11/02 08:36:59;;;;;;;3.80;2.42;;;12.90;99.90;;;;;;6158393;23;20029;-83
2022/11/02 08:40:22;;;;;;;4.07;3.13;;;13.00;99.90;;;;;;6199934;23;20032;-84
2022/11/02 08:51:26;;;;;;;3.33;2.80;;;13.30;99.90;;;;;;6159510;23;20059;-85
2022/11/02 08:54:26;;;;;;;6.90;3.55;;;13.40;99.90;;;;;;6160321;23;20021;-84
2022/11/02 08:57:03;;;;;;;6.30;3.58;;;13.40;99.90;;;;;;6119055;23;20036;-87
2022/11/02 08:59:40;;;;;;;4.28;3.15;;;13.30;99.90;;;;;;6113136;23;20036;-87
2022/11/02 09:02:16;;;;;;;4.95;2.60;;;13.20;99.90;;;;;;6171188;23;20013;-87
2022/11/02 09:06:07;;;;;;;3.42;2.40;;;13.30;99.90;;;;;;6133754;23;20352;-86
2022/11/02 09:08:43;;;;;;;3.38;2.35;;;13.40;99.90;;;;;;6123010;23;20016;-85
2022/11/02 09:11:11;;;;;;;1.70;1.60;;;13.60;99.90;;;;;;6190239;23;20041;-85
2022/11/02 09:13:39;;;;;;;3.08;2.33;;;13.80;99.90;;;;;;6196148;23;20333;-85
2022/11/02 09:16:09;;;;;;;2.17;1.97;;;14.20;99.90;;;;;;6186471;23;20025;-84
2022/11/02 09:18:37;;;;;;;9.27;3.65;;;14.40;99.90;;;;;;6168305;23;20020;-85
2022/11/02 09:21:05;;;;;;;2.75;2.13;;;14.80;99.90;;;;;;6196170;23;20457;-84
2022/11/02 09:23:32;;;;;;;4.68;1.35;;;16.00;99.90;;;;;;6174777;23;20032;-83
2022/11/02 09:26:10;;;;;;;2.05;1.63;;;16.20;99.90;;;;;;6195658;23;20013;-85
2022/11/02 09:28:40;;;;;;;2.47;1.77;;;15.60;99.90;;;;;;6110789;23;20618;-84
2022/11/02 09:31:28;;;;;;;0.98;0.80;;;15.30;99.90;;;;;;6159460;23;20021;-88
2022/11/02 09:33:58;;;;;;;8.55;2.90;;;14.80;99.90;;;;;;6145492;23;20024;-85
2022/11/02 09:36:26;;;;;;;2.63;2.00;;;14.60;99.90;;;;;;6123135;23;20025;-83
2022/11/02 09:38:56;;;;;;;1.15;1.05;;;14.60;99.90;;;;;;6158846;23;20024;-84
2022/11/02 09:41:50;;;;;;;2.15;1.92;;;14.40;99.90;;;;;;6170296;23;20013;-84
2022/11/02 09:44:23;;;;;;;;;;;14.50;99.90;;;;;;6161972;23;20457;-84
2022/11/02 09:46:54;;;;;;;8.15;1.80;;;14.40;99.90;;;;;;6159041;23;19916;-85
2022/11/02 09:49:57;;;;;;;2.40;1.20;;;14.20;99.90;;;;;;6130173;23;20098;-85
2022/11/02 09:52:40;;;;;;;4.28;2.03;;;14.20;99.90;;;;;;6174764;23;20033;-84
2022/11/02 09:55:52;;;;;;;4.80;2.70;;;14.10;99.90;;;;;;6188766;23;20028;-84
2022/11/02 09:58:26;;;;;;;11.25;1.70;;;14.10;99.90;;;;;;6189261;23;20017;-85
2022/11/02 10:01:03;;;;;;;1.77;1.33;;;14.10;99.90;;;;;;6224477;23;20332;-86
2022/11/02 10:04:51;;;;;;;12.75;5.30;;;14.10;99.90;;;;;;6172790;23;20021;-91
2022/11/02 10:07:48;;;;;;;6.45;2.35;;;14.00;99.90;;;;;;6215176;23;20028;-87
2022/11/02 10:10:24;;;;;;;9.38;4.00;;;14.10;99.90;;;;;;6224085;23;20017;-87
2022/11/02 10:13:14;;;;;;;1.85;1.58;;;14.20;99.90;;;;;;6160922;23;20028;-86
2022/11/02 10:15:52;;;;;;;4.90;2.10;;;14.30;99.90;;;;;;6191813;23;20035;-85
2022/11/02 10:18:29;;;;;;;4.10;2.17;;;14.30;99.90;;;;;;6137331;23;20027;-85
2022/11/02 10:21:50;;;;;;;3.55;2.05;;;14.30;99.90;;;;;;6186510;23;20444;-92
2022/11/02 10:25:00;;;;;;;2.63;1.35;;;14.20;99.90;;;;;;6165538;23;20036;-85
2022/11/02 10:27:36;;;;;;;7.13;1.38;;;14.30;99.90;;;;;;6217405;23;20032;-89
2022/11/02 10:30:50;;;;;;;;;;;;;;;;;;;;;
2022/11/02 10:34:22;;;;;;;1.30;1.20;;;14.30;99.90;;;;;;6123962;23;20041;-86
2022/11/02 10:40:51;;;;;;;4.75;1.85;;;14.50;99.90;;;;;;6094780;23;20041;-87
2022/11/02 10:44:00;;;;;;;3.58;1.63;;;14.50;99.90;;;;;;6070803;23;20022;-85
2022/11/02 10:47:17;;;;;;;16.92;1.77;;;14.50;99.90;;;;;;6107772;23;20017;-86
2022/11/02 10:50:50;;;;;;;1.73;1.27;;;14.50;99.90;;;;;;6139711;23;20855;-87
2022/11/02 10:53:23;;;;;;;1.33;1.10;;;14.40;99.90;;;;;;6023797;23;20393;-87
2022/11/02 10:56:39;;;;;;;3.45;1.48;;;14.10;99.90;;;;;;6118597;23;20026;-89
2022/11/02 10:59:19;;;;;;;4.18;1.60;;;14.20;99.90;;;;;;6069961;23;20030;-88
2022/11/02 11:01:58;;;;;;;3.88;2.58;;;14.20;99.90;;;;;;6094763;23;20022;-88
2022/11/02 11:04:33;;;;;;;8.15;1.83;;;14.20;99.90;;;;;;6165737;23;20051;-87
2022/11/02 11:07:26;;;;;;;2.13;1.52;;;14.10;99.90;;;;;;6172847;23;20348;-89
2022/11/02 11:09:56;;;;;;;2.90;0.88;;;14.20;99.90;;;;;;6136500;23;20021;-85
2022/11/02 11:12:45;;;;;;;2.13;1.33;;;14.20;99.90;;;;;;6211525;22;20029;-86
2022/11/02 11:15:27;;;;;;;12.98;3.75;;;14.20;99.90;;;;;;6167028;23;20465;-85
2022/11/02 11:18:21;;;;;;;5.45;1.65;;;14.10;99.90;;;;;;6164106;23;20028;-86
2022/11/02 11:21:09;;;;;;;2.63;1.20;;;14.10;99.90;;;;;;6141277;23;20032;-87
2022/11/02 11:24:18;;;;;;;3.53;0.98;;;14.10;99.90;;;;;;6136832;23;20036;-86
2022/11/02 11:27:00;;;;;;;4.97;1.10;;;14.10;99.90;;;;;;6158559;23;20664;-88
2022/11/02 11:29:36;;;;;;;4.63;1.50;;;14.20;99.90;;;;;;6161245;23;20043;-85
2022/11/02 11:32:52;;;;;;;3.53;3.22;;;14.20;99.90;;;;;;6166841;23;20032;-85
2022/11/02 11:35:46;;;;;;;3.90;1.73;;;14.20;99.90;;;;;;6167190;23;20060;-87
2022/11/02 11:38:26;;;;;;;2.95;1.10;;;14.20;99.90;;;;;;6196414;23;20017;-86
2022/11/02 11:40:57;;;;;;;2.40;1.65;;;14.20;99.90;;;;;;6119985;23;20036;-83
2022/11/02 11:43:28;;;;;;;8.40;2.60;;;14.40;99.90;;;;;;6150361;23;20077;-85
2022/11/02 11:46:16;;;;;;;1.63;1.25;;;14.30;99.90;;;;;;6131980;23;20030;-83
2022/11/02 11:48:55;;;;;;;6.47;2.10;;;14.20;99.90;;;;;;6147927;23;20469;-83
2022/11/02 11:51:36;;;;;;;1.90;1.10;;;14.30;99.90;;;;;;6153407;23;20024;-83
2022/11/02 11:54:28;;;;;;;4.10;1.67;;;14.30;99.90;;;;;;6159602;23;20021;-83
2022/11/02 11:57:21;;;;;;;3.92;2.53;;;14.20;99.90;;;;;;6132034;23;20036;-84
2022/11/02 11:59:51;;;;;;;4.53;2.58;;;14.20;99.90;;;;;;6124727;23;20032;-83
2022/11/02 12:02:23;;;;;;;6.47;1.08;;;14.20;99.90;;;;;;6100936;23;20022;-83
2022/11/02 12:04:56;;;;;;;2.67;1.77;;;14.30;99.90;;;;;;6124776;23;20033;-84
2022/11/02 12:07:45;;;;;;;4.18;1.20;;;14.10;99.90;;;;;;6124488;23;20034;-87
2022/11/02 12:10:33;;;;;;;8.95;1.33;;;14.10;99.90;;;;;;6101790;23;20025;-84
2022/11/02 12:13:31;;;;;;;8.00;3.35;;;14.00;99.90;;;;;;6125256;23;20345;-84
2022/11/02 12:16:17;;;;;;;8.70;2.08;;;13.90;99.90;;;;;;6124990;23;20021;-84
2022/11/02 12:18:58;;;;;;;1.15;0.75;;;14.00;99.90;;;;;;6136292;23;20021;-87
2022/11/02 12:21:52;;;;;;;6.28;2.55;;;14.00;99.90;;;;;;6162898;23;20021;-86
2022/11/02 12:47:58;;;;;;;3.03;1.48;;;13.60;99.90;;;;;;6347880;22;20014;-87
2022/11/02 12:50:56;;;;;;;8.85;3.63;;;13.60;99.90;;;;;;6283186;22;20023;-86
2022/11/02 12:54:19;;;;;;;6.40;1.50;;;13.60;99.90;;;;;;6307411;22;20010;-83
2022/11/02 12:56:55;;;;;;;7.85;4.88;;;13.70;99.90;;;;;;6280782;22;20015;-83
2022/11/02 12:59:31;;;;;;;3.08;1.27;;;13.60;99.90;;;;;;6255315;22;20023;-84
2022/11/02 13:02:23;;;;;;;1.58;0.98;;;13.40;99.90;;;;;;6281825;22;20030;-84
2022/11/02 13:05:07;;;;;;;1.88;0.80;;;13.50;99.90;;;;;;6278315;22;20019;-84
2022/11/02 13:07:43;;;;;;;2.15;0.70;;;13.50;99.90;;;;;;6255520;22;20026;-85
2022/11/02 13:10:30;;;;;;;10.10;5.38;;;13.70;99.90;;;;;;6281958;22;20525;-84
2022/11/02 13:13:02;;;;;;;7.75;2.10;;;13.50;99.90;;;;;;6289277;22;20023;-83
2022/11/02 13:15:36;;;;;;;4.50;1.23;;;13.50;99.90;;;;;;6287559;22;20023;-84
2022/11/02 13:18:18;;;;;;;3.22;1.83;;;13.50;99.90;;;;;;6306684;22;20015;-84
2022/11/02 13:20:58;;;;;;;11.93;3.45;;;13.60;99.90;;;;;;6306376;22;20045;-85
2022/11/02 13:24:09;;;;;;;4.93;2.45;;;13.50;99.90;;;;;;6287209;22;20434;-87
2022/11/02 13:26:42;;;;;;;1.65;1.52;;;13.50;99.90;;;;;;6316323;22;20033;-85
2022/11/02 13:29:29;;;;;;;5.10;1.53;;;13.40;99.90;;;;;;6257054;22;20339;-85
2022/11/02 13:32:20;;;;;;;2.22;2.03;;;13.50;99.90;;;;;;6270123;22;20264;-84
2022/11/02 13:34:52;;;;;;;3.33;1.60;;;13.50;99.90;;;;;;6315594;22;20022;-84
2022/11/02 13:37:33;;;;;;;3.47;1.52;;;13.60;99.90;;;;;;6256648;22;20338;-85
2022/11/02 13:40:17;;;;;;;4.50;1.87;;;13.60;99.90;;;;;;6256215;22;20677;-84
2022/11/02 13:50:47;;;;;;;1.60;1.48;;;13.60;99.90;;;;;;6221860;22;20023;-84
2022/11/02 14:13:16;;;;;;;1.23;1.13;;;13.30;99.90;;;;;;6136291;23;20097;-86
2022/11/02 14:21:51;;;;;;;0.73;0.68;;;13.30;99.90;;;;;;6197564;23;20028;-86
2022/11/02 14:30:57;;;;;;;3.25;1.10;;;13.10;99.90;;;;;;6265603;22;20092;-86
2022/11/02 14:39:33;;;;;;;6.13;1.38;;;13.00;99.90;;;;;;6250583;22;20034;-86
2022/11/02 15:22:46;;;;;;;;;;;;;;;;;;;;;
2022/11/02 15:27:26;;;;;;;4.70;1.50;;;12.60;99.90;;;;;;5920321;24;20028;-85
2022/11/02 15:37:01;;;;;;;;;;;;;;;;;;;;;
2022/11/02 15:50:58;;;;;;;5.45;1.75;;;11.40;99.90;;;;;;6094323;23;20378;-84
2022/11/02 16:00:42;;;;;;;5.22;1.63;;;10.40;99.90;;;;;;6041623;23;20023;-84
2022/11/02 16:09:24;;;;;;;;;;;;;;;;;;;;;
2022/11/02 16:23:26;;;;;;;3.67;1.60;;;9.50;99.90;;;;;;5941752;23;20027;-84
2022/11/02 16:36:16;;;;;;;2.53;0.93;;;9.10;99.90;;;;;;6159147;23;20036;-85
2022/11/02 16:43:44;;;;;;;5.95;0.93;;;8.90;99.90;;;;;;6094121;23;20026;-84
2022/11/02 16:48:13;;;;;;;5.85;1.30;;;8.70;99.90;;;;;;6066923;23;20022;-85
2022/11/02 16:51:33;;;;;;;2.00;1.02;;;8.60;99.90;;;;;;6103412;23;20025;-86
2022/11/02 16:54:44;;;;;;;1.00;0.73;;;8.70;99.90;;;;;;6160138;23;20017;-86
2022/11/02 17:06:41;;;;;;;;;;;8.30;99.90;;;;;;6196755;23;20021;-87
2022/11/02 17:10:28;;;;;;;3.20;1.42;;;8.20;99.90;;;;;;6027402;23;19924;-87
2022/11/02 17:14:53;;;;;;;2.70;1.27;;;8.10;99.90;;;;;;6014312;23;20015;-87
2022/11/02 17:23:06;;;;;;;1.27;1.23;;;8.00;99.90;;;;;;6041896;23;20019;-87
2022/11/02 17:28:13;;;;;;;1.48;1.08;;;7.90;99.90;;;;;;5961486;23;20025;-87
2022/11/02 17:33:03;;;;;;;1.88;1.17;;;7.90;99.90;;;;;;5956766;23;20027;-87
2022/11/02 17:36:59;;;;;;;;;;;7.90;99.90;;;;;;6116854;23;20026;-86
2022/11/02 17:39:32;;;;;;;3.17;1.30;;;8.00;99.90;;;;;;6094476;23;19917;-86
2022/11/02 17:44:48;;;;;;;1.00;1.00;;;8.10;99.90;;;;;;6122591;23;20025;-85
2022/11/02 17:47:18;;;;;;;4.65;2.50;;;8.10;99.90;;;;;;6057849;23;20026;-86
2022/11/02 17:49:49;;;;;;;4.00;3.45;;;7.90;99.90;;;;;;6096745;23;20018;-85
2022/11/02 17:52:52;;;;;;;3.88;3.53;;;7.90;99.90;;;;;;6076675;23;20069;-87
2022/11/02 17:55:42;;;;;;;4.53;1.80;;;7.80;99.90;;;;;;6078158;23;20026;-89
2022/11/02 17:58:09;;;;;;;1.63;1.52;;;7.80;99.90;;;;;;6099170;23;20061;-84
2022/11/02 18:00:36;;;;;;;2.97;1.50;;;7.50;99.90;;;;;;6075290;23;20126;-82
2022/11/02 18:03:10;;;;;;;5.05;1.45;;;7.40;99.90;;;;;;6075080;23;20014;-87
2022/11/02 18:05:37;;;;;;;4.90;2.55;;;7.40;99.90;;;;;;6052036;23;20014;-84
2022/11/02 18:08:05;;;;;;;2.72;1.40;;;7.40;99.90;;;;;;6131449;23;20354;-89
2022/11/02 18:11:16;;;;;;;3.00;1.48;;;7.30;99.90;;;;;;6101720;23;20021;-91
2022/11/02 18:13:58;;;;;;;1.85;1.67;;;7.40;99.90;;;;;;6129135;23;20028;-86
2022/11/02 18:16:30;;;;;;;17.90;6.45;;;7.40;99.90;;;;;;6155178;23;20022;-86
2022/11/02 18:20:09;;;;;;;1.63;1.38;;;7.40;99.90;;;;;;6138987;23;20639;-84
2022/11/02 18:22:37;;;;;;;2.65;1.45;;;6.90;99.90;;;;;;6163882;23;20341;-82
2022/11/02 18:25:16;;;;;;;2.63;1.63;;;6.60;99.90;;;;;;6105180;23;20024;-84
2022/11/02 18:27:55;;;;;;;4.35;1.25;;;6.50;99.90;;;;;;6080485;23;20025;-87
2022/11/02 18:30:28;;;;;;;6.75;1.15;;;6.40;99.90;;;;;;6138670;23;20024;-86
2022/11/02 18:32:59;;;;;;;8.25;2.53;;;6.40;99.90;;;;;;6105696;23;20334;-87
2022/11/02 18:35:27;;;;;;;4.72;2.47;;;6.50;99.90;;;;;;6130864;23;20445;-87
2022/11/02 18:37:54;;;;;;;5.18;2.00;;;6.80;99.90;;;;;;6105502;23;20025;-89
2022/11/02 18:40:34;;;;;;;1.90;1.80;;;6.90;99.90;;;;;;6128441;23;20025;-85
2022/11/02 18:43:02;;;;;;;2.70;2.50;;;7.00;99.90;;;;;;6080405;23;20022;-85
2022/11/02 18:45:30;;;;;;;1.73;1.30;;;6.90;99.90;;;;;;6129907;23;20018;-85
2022/11/02 18:47:59;;;;;;;1.50;1.40;;;6.80;99.90;;;;;;6132511;23;20342;-84
2022/11/02 18:50:26;;;;;;;4.90;1.75;;;6.60;99.90;;;;;;6160161;23;20018;-85
2022/11/02 18:52:54;;;;;;;1.63;1.10;;;6.60;99.90;;;;;;6139722;23;20014;-85
2022/11/02 18:55:21;;;;;;;1.80;1.60;;;6.70;99.90;;;;;;6160595;23;20323;-85
2022/11/02 18:57:49;;;;;;;1.00;1.00;;;6.80;99.90;;;;;;6165095;23;20342;-84
2022/11/02 19:00:17;;;;;;;2.63;2.30;;;6.80;99.90;;;;;;6104698;23;20017;-84
2022/11/02 19:02:45;;;;;;;3.08;2.28;;;6.60;99.90;;;;;;6128978;23;20018;-84
2022/11/02 19:10:49;;;;;;;4.65;1.73;;;6.30;99.90;;;;;;6162602;23;20017;-85
2022/11/02 19:13:20;;;;;;;2.58;1.40;;;6.40;99.90;;;;;;6165599;23;20010;-83
2022/11/02 19:15:48;;;;;;;6.10;2.13;;;6.40;99.90;;;;;;6159200;23;20032;-84
2022/11/02 19:18:15;;;;;;;5.88;3.58;;;6.40;99.90;;;;;;6139428;23;20014;-84
2022/11/02 19:20:44;;;;;;;1.30;1.20;;;6.40;99.90;;;;;;6155417;23;20021;-84
2022/11/02 19:23:14;;;;;;;2.67;1.17;;;6.10;99.90;;;;;;6161442;23;20054;-84
2022/11/02 19:26:56;;;;;;;3.42;1.75;;;5.90;99.90;;;;;;6139437;23;20024;-84
2022/11/02 19:29:32;;;;;;;4.65;3.90;;;5.80;99.90;;;;;;6162829;23;20022;-84
2022/11/02 19:32:06;;;;;;;2.25;2.15;;;6.00;99.90;;;;;;6157711;23;20458;-83
2022/11/02 19:34:35;;;;;;;3.60;2.03;;;6.10;99.90;;;;;;6153361;23;20033;-85
2022/11/02 19:37:21;;;;;;;2.55;2.13;;;6.20;99.90;;;;;;6164996;23;20017;-85
2022/11/02 19:40:16;;;;;;;3.00;2.70;;;6.20;99.90;;;;;;6123832;23;20021;-85
2022/11/02 19:42:51;;;;;;;5.35;3.83;;;6.00;99.90;;;;;;6163032;23;20017;-86
2022/11/02 19:45:33;;;;;;;2.85;2.65;;;6.00;99.90;;;;;;6162130;23;20026;-86
2022/11/02 19:48:25;;;;;;;4.03;2.90;;;6.00;99.90;;;;;;6093625;23;20023;-86
2022/11/02 19:51:56;;;;;;;9.48;7.40;;;6.00;99.90;;;;;;6083627;23;20030;-88
2022/11/02 19:54:54;;;;;;;9.77;8.65;;;6.20;99.90;;;;;;6100973;23;20041;-86
2022/11/02 19:58:16;;;;;;;6.47;4.28;;;6.20;99.90;;;;;;6120167;23;20014;-88
2022/11/02 20:00:49;;;;;;;6.00;2.97;;;6.10;99.90;;;;;;6106594;23;20018;-85
2022/11/02 20:03:16;;;;;;;2.53;2.30;;;5.90;99.90;;;;;;6122520;23;20022;-85
2022/11/02 20:05:47;;;;;;;3.70;3.47;;;5.60;99.90;;;;;;6098269;23;20014;-85
2022/11/02 20:08:16;;;;;;;6.57;4.63;;;5.60;99.90;;;;;;6147813;23;20037;-85
2022/11/02 20:10:44;;;;;;;3.00;2.47;;;5.80;99.90;;;;;;6122108;23;20029;-83
2022/11/02 20:13:11;;;;;;;2.25;2.15;;;5.90;99.90;;;;;;6152157;23;20334;-86
2022/11/02 20:15:42;;;;;;;7.43;4.47;;;6.00;99.90;;;;;;6122206;23;20021;-85
2022/11/02 20:18:13;;;;;;;4.47;4.07;;;6.10;99.90;;;;;;6099532;23;20029;-84
2022/11/02 20:21:00;;;;;;;6.22;3.97;;;6.00;99.90;;;;;;6123987;23;20022;-86
2022/11/02 20:23:41;;;;;;;;;;;5.90;99.90;;;;;;6134920;23;20021;-89
2022/11/02 20:26:23;;;;;;;6.68;3.63;;;6.00;99.90;;;;;;6160404;23;19920;-83
2022/11/02 20:28:51;;;;;;;6.57;3.67;;;6.00;99.90;;;;;;6134637;23;20472;-83
2022/11/02 20:31:24;;;;;;;4.40;3.70;;;6.10;99.90;;;;;;6134519;23;20445;-83
2022/11/02 20:33:52;;;;;;;3.45;3.08;;;6.10;99.90;;;;;;6197092;23;20028;-83
2022/11/02 20:36:20;;;;;;;4.38;3.97;;;6.10;99.90;;;;;;6161636;23;20025;-83
2022/11/02 20:38:48;;;;;;;3.28;2.97;;;6.10;99.90;;;;;;6167840;23;20017;-83
2022/11/02 20:41:17;;;;;;;7.80;5.70;;;6.10;99.90;;;;;;6195207;23;20322;-84
2022/11/02 20:43:47;;;;;;;2.20;2.10;;;5.70;99.90;;;;;;6159381;23;20029;-84
2022/11/02 20:46:18;;;;;;;2.58;2.42;;;5.70;99.90;;;;;;6145382;23;20020;-85
2022/11/02 20:49:06;;;;;;;2.75;2.55;;;5.70;99.90;;;;;;6120839;23;20024;-84
2022/11/02 20:51:58;;;;;;;6.05;2.45;;;5.90;99.90;;;;;;6129372;23;20032;-84
2022/11/02 20:55:01;;;;;;;6.97;3.30;;;5.70;99.90;;;;;;6166032;23;20017;-84
2022/11/02 20:57:28;;;;;;;2.38;2.17;;;5.80;99.90;;;;;;6140076;23;20009;-84
2022/11/02 20:59:55;;;;;;;3.42;3.15;;;5.70;99.90;;;;;;6159605;23;20453;-84
2022/11/02 21:02:23;;;;;;;9.65;4.63;;;5.70;99.90;;;;;;6165774;23;20020;-84
2022/11/02 21:04:51;;;;;;;4.72;2.78;;;5.80;99.90;;;;;;6166909;23;20020;-84
2022/11/02 21:07:18;;;;;;;4.20;2.70;;;5.90;99.90;;;;;;6161991;23;20028;-82
2022/11/02 21:09:45;;;;;;;2.53;2.33;;;5.80;99.90;;;;;;6164846;23;20028;-84
2022/11/02 21:15:01;;;;;;;2.92;2.63;;;5.80;99.90;;;;;;6162928;23;20465;-85
2022/11/02 21:17:29;;;;;;;1.67;1.58;;;5.70;99.90;;;;;;6166012;23;20010;-85
2022/11/02 21:19:58;;;;;;;2.53;2.28;;;5.50;99.90;;;;;;6159104;23;20018;-85
2022/11/02 21:22:48;;;;;;;7.25;2.83;;;5.20;99.90;;;;;;6163662;23;20441;-84
2022/11/02 21:25:20;;;;;;;10.23;3.03;;;5.20;99.90;;;;;;6164628;23;20009;-85
2022/11/02 21:27:50;;;;;;;2.63;2.42;;;5.20;99.90;;;;;;6159643;23;20026;-84
2022/11/02 21:30:19;;;;;;;2.60;2.40;;;5.20;99.90;;;;;;6105827;23;20449;-84
2022/11/02 21:32:50;;;;;;;2.53;2.33;;;5.20;99.90;;;;;;6155606;23;20476;-84
2022/11/02 21:35:21;;;;;;;7.65;3.45;;;5.20;99.90;;;;;;6161461;23;20025;-84
2022/11/02 21:37:49;;;;;;;3.58;3.28;;;5.20;99.90;;;;;;6166422;23;20014;-84
2022/11/02 21:40:16;;;;;;;5.50;4.88;;;5.30;99.90;;;;;;6157591;23;20028;-84
2022/11/02 21:42:43;;;;;;;8.07;4.38;;;5.40;99.90;;;;;;6162742;23;20450;-84
2022/11/02 21:45:11;;;;;;;5.45;2.38;;;5.40;99.90;;;;;;6165896;23;20009;-84
2022/11/02 21:47:44;;;;;;;3.33;2.95;;;5.40;99.90;;;;;;6158368;23;20516;-84
2022/11/02 21:50:12;;;;;;;3.50;2.70;;;5.60;99.90;;;;;;6144946;23;20024;-84
2022/11/02 21:52:40;;;;;;;5.57;2.65;;;5.70;99.90;;;;;;6185804;23;20017;-84
2022/11/02 21:55:56;;;;;;;2.40;2.22;;;5.60;99.90;;;;;;6158866;23;20022;-84
2022/11/02 21:58:24;;;;;;;5.65;4.40;;;5.20;99.90;;;;;;6193053;23;20017;-84
2022/11/02 22:03:57;;;;;;;4.43;3.03;;;5.30;99.90;;;;;;6188232;23;20021;-84
2022/11/02 22:06:25;;;;;;;3.42;3.13;;;5.20;99.90;;;;;;6194295;23;20028;-84
2022/11/02 22:08:58;;;;;;;4.68;2.67;;;5.30;99.90;;;;;;6195817;23;20024;-84
2022/11/02 22:11:26;;;;;;;4.70;2.70;;;5.30;99.90;;;;;;6158647;23;20484;-84
2022/11/02 22:13:57;;;;;;;3.20;2.85;;;5.50;99.90;;;;;;6196063;23;20035;-84
2022/11/02 22:16:30;;;;;;;3.05;2.85;;;5.50;99.90;;;;;;6158406;23;20036;-84
2022/11/02 22:19:00;;;;;;;4.28;3.50;;;5.60;99.90;;;;;;6192488;23;20814;-84
2022/11/02 22:21:32;;;;;;;8.32;3.42;;;5.60;99.90;;;;;;6195674;23;20013;-84
2022/11/02 22:24:00;;;;;;;5.35;2.65;;;5.60;99.90;;;;;;6161887;23;20032;-84
2022/11/02 22:26:29;;;;;;;3.42;3.13;;;5.50;99.90;;;;;;6167527;23;20032;-84
2022/11/02 22:28:59;;;;;;;3.25;2.95;;;5.50;99.90;;;;;;6195614;23;20010;-84
2022/11/02 22:31:29;;;;;;;3.72;2.60;;;5.50;99.90;;;;;;6190565;23;20040;-84
2022/11/02 22:33:58;;;;;;;7.72;3.05;;;5.60;99.90;;;;;;6195593;23;20028;-84
2022/11/02 22:36:28;;;;;;;3.80;3.50;;;5.60;99.90;;;;;;6184682;23;20025;-84
2022/11/02 22:38:57;;;;;;;4.40;2.60;;;5.70;99.90;;;;;;6192216;23;20032;-84
2022/11/02 22:41:41;;;;;;;5.38;3.15;;;5.70;99.90;;;;;;6195370;23;20017;-84
2022/11/02 22:44:17;;;;;;;7.32;2.78;;;5.30;99.90;;;;;;6109975;23;20467;-84
2022/11/02 22:46:49;;;;;;;7.55;5.35;;;5.10;99.90;;;;;;6134248;23;20028;-84
2022/11/02 22:49:18;;;;;;;4.22;2.72;;;5.10;99.90;;;;;;6195698;23;20325;-84
2022/11/02 22:51:48;;;;;;;3.10;2.80;;;5.20;99.90;;;;;;6183185;23;20028;-84
2022/11/02 22:54:17;;;;;;;5.68;3.00;;;5.30;99.90;;;;;;6194066;23;20009;-84
2022/11/02 22:56:47;;;;;;;5.25;2.70;;;5.40;99.90;;;;;;6184792;23;20031;-84
2022/11/02 22:59:14;;;;;;;5.47;4.82;;;5.30;99.90;;;;;;6133974;23;20025;-84
2022/11/02 23:01:42;;;;;;;5.65;2.80;;;5.30;99.90;;;;;;6135000;23;20753;-84
2022/11/02 23:04:10;;;;;;;5.28;2.60;;;5.30;99.90;;;;;;6133848;23;20449;-84
2022/11/02 23:06:38;;;;;;;4.35;2.40;;;5.30;99.90;;;;;;6191936;23;20743;-84
2022/11/02 23:09:06;;;;;;;2.17;2.08;;;5.20;99.90;;;;;;6159231;23;20017;-84
2022/11/02 23:11:35;;;;;;;5.00;2.78;;;5.20;99.90;;;;;;6158259;23;20040;-84
2022/11/02 23:14:04;;;;;;;4.13;3.22;;;5.30;99.90;;;;;;6149512;23;20016;-84
2022/11/02 23:16:36;;;;;;;2.90;2.70;;;5.30;99.90;;;;;;6214197;23;20329;-84
2022/11/02 23:19:22;;;;;;;;;;;5.30;99.90;;;;;;6139063;23;20024;-83
2022/11/02 23:25:57;;;;;;;4.05;3.05;;;5.10;99.90;;;;;;6163043;23;20021;-84
2022/11/02 23:34:00;;;;;;;2.83;2.55;;;5.00;99.90;;;;;;6164200;23;20313;-84
2022/11/02 23:36:27;;;;;;;3.33;3.03;;;5.00;99.90;;;;;;6187835;23;20475;-84
2022/11/02 23:41:40;;;;;;;5.57;3.60;;;5.10;99.90;;;;;;6199192;23;20016;-84
2022/11/02 23:44:10;;;;;;;6.38;2.92;;;5.10;99.90;;;;;;6139127;23;20031;-83
2022/11/02 23:46:44;;;;;;;5.60;2.85;;;5.00;99.90;;;;;;6163550;23;20025;-84
2022/11/02 23:49:12;;;;;;;9.18;3.95;;;5.10;99.90;;;;;;6164257;23;20024;-84
2022/11/02 23:57:24;;;;;;;3.88;3.47;;;5.30;99.90;;;;;;6226835;23;20028;-84
2022/11/02 23:59:51;;;;;;;6.03;4.80;;;5.40;99.90;;;;;;6153662;23;20032;-84
